sensor_id;sensor_type;location;lat;lon;timestamp;pressure;altitude;pressure_sealevel;temperature;humidity
59407;BME280;45208;32.616;-115.472;2022-09-09T19:47:41;100336.22;;;42.58;35.78
59407;BME280;45208;32.616;-115.472;2022-09-09T19:50:08;100346.00;;;42.22;37.34
59407;BME280;45208;32.616;-115.472;2022-09-09T19:52:34;100347.78;;;42.19;36.45
59407;BME280;45208;32.616;-115.472;2022-09-09T19:55:01;100336.09;;;43.02;37.68
59407;BME280;45208;32.616;-115.472;2022-09-09T19:57:28;100338.19;;;43.42;36.30
59407;BME280;45208;32.616;-115.472;2022-09-09T19:59:55;100337.19;;;41.96;33.87
59407;BME280;45208;32.616;-115.472;2022-09-09T20:02:22;100338.44;;;43.04;38.79
59407;BME280;45208;32.616;-115.472;2022-09-09T20:04:49;100338.75;;;43.93;35.92
59407;BME280;45208;32.616;-115.472;2022-09-09T20:07:15;100339.56;;;43.47;35.28
59407;BME280;45208;32.616;-115.472;2022-09-09T20:09:42;100340.94;;;43.31;37.41
59407;BME280;45208;32.616;-115.472;2022-09-09T20:12:08;100349.41;;;43.66;37.48
59407;BME280;45208;32.616;-115.472;2022-09-09T20:14:36;100343.47;;;43.70;39.01
59407;BME280;45208;32.616;-115.472;2022-09-09T20:17:02;100336.63;;;42.21;37.25
59407;BME280;45208;32.616;-115.472;2022-09-09T20:19:29;100331.09;;;43.58;38.99
59407;BME280;45208;32.616;-115.472;2022-09-09T20:21:56;100326.88;;;42.93;39.08
59407;BME280;45208;32.616;-115.472;2022-09-09T20:24:23;100342.25;;;44.03;37.96
59407;BME280;45208;32.616;-115.472;2022-09-09T20:26:50;100334.13;;;41.46;37.53
59407;BME280;45208;32.616;-115.472;2022-09-09T20:29:18;100333.63;;;43.10;37.06
59407;BME280;45208;32.616;-115.472;2022-09-09T20:31:44;100334.13;;;43.49;34.30
59407;BME280;45208;32.616;-115.472;2022-09-09T20:34:12;100327.06;;;43.96;31.25
59407;BME280;45208;32.616;-115.472;2022-09-09T20:36:39;100319.69;;;43.84;36.81
59407;BME280;45208;32.616;-115.472;2022-09-09T20:39:09;100307.75;;;44.49;36.69
59407;BME280;45208;32.616;-115.472;2022-09-09T20:41:37;100310.78;;;44.71;33.78
59407;BME280;45208;32.616;-115.472;2022-09-09T20:44:06;100308.16;;;45.22;32.07
59407;BME280;45208;32.616;-115.472;2022-09-09T20:46:33;100309.94;;;45.73;35.94
59407;BME280;45208;32.616;-115.472;2022-09-09T20:49:01;100288.28;;;46.28;37.07
59407;BME280;45208;32.616;-115.472;2022-09-09T20:51:28;100297.16;;;46.58;36.26
59407;BME280;45208;32.616;-115.472;2022-09-09T20:53:56;100301.41;;;45.25;33.08
59407;BME280;45208;32.616;-115.472;2022-09-09T20:56:23;100289.50;;;45.60;30.37
59407;BME280;45208;32.616;-115.472;2022-09-09T20:58:49;100300.31;;;44.31;32.10
59407;BME280;45208;32.616;-115.472;2022-09-09T21:01:16;100290.69;;;44.03;34.35
59407;BME280;45208;32.616;-115.472;2022-09-09T21:03:42;100284.25;;;45.36;31.12
59407;BME280;45208;32.616;-115.472;2022-09-09T21:06:09;100281.38;;;45.30;31.28
59407;BME280;45208;32.616;-115.472;2022-09-09T21:08:35;100277.22;;;46.93;27.11
59407;BME280;45208;32.616;-115.472;2022-09-09T21:11:02;100277.28;;;47.76;29.13
59407;BME280;45208;32.616;-115.472;2022-09-09T21:13:29;100278.88;;;45.94;28.31
59407;BME280;45208;32.616;-115.472;2022-09-09T21:15:55;100280.53;;;47.09;28.06
59407;BME280;45208;32.616;-115.472;2022-09-09T21:18:21;100268.16;;;47.72;25.13
59407;BME280;45208;32.616;-115.472;2022-09-09T21:20:48;100276.81;;;48.37;27.03
59407;BME280;45208;32.616;-115.472;2022-09-09T21:23:16;100274.56;;;48.25;25.79
59407;BME280;45208;32.616;-115.472;2022-09-09T21:25:43;100275.34;;;48.25;24.07
59407;BME280;45208;32.616;-115.472;2022-09-09T21:28:09;100265.28;;;47.72;26.59
59407;BME280;45208;32.616;-115.472;2022-09-09T21:30:37;100265.75;;;46.77;26.74
59407;BME280;45208;32.616;-115.472;2022-09-09T21:33:03;100256.50;;;48.73;24.78
59407;BME280;45208;32.616;-115.472;2022-09-09T21:35:33;100258.44;;;46.64;27.87
59407;BME280;45208;32.616;-115.472;2022-09-09T21:38:00;100253.53;;;48.79;24.75
59407;BME280;45208;32.616;-115.472;2022-09-09T21:40:28;100260.31;;;49.24;22.47
59407;BME280;45208;32.616;-115.472;2022-09-09T21:42:56;100263.00;;;49.41;23.65
59407;BME280;45208;32.616;-115.472;2022-09-09T21:45:24;100259.09;;;48.77;23.25
59407;BME280;45208;32.616;-115.472;2022-09-09T21:47:52;100258.28;;;49.00;24.07
59407;BME280;45208;32.616;-115.472;2022-09-09T21:50:19;100263.66;;;48.42;24.36
59407;BME280;45208;32.616;-115.472;2022-09-09T21:52:47;100254.28;;;49.79;23.40
59407;BME280;45208;32.616;-115.472;2022-09-09T21:55:13;100247.72;;;50.24;21.68
59407;BME280;45208;32.616;-115.472;2022-09-09T21:57:40;100250.25;;;49.50;23.65
59407;BME280;45208;32.616;-115.472;2022-09-09T22:00:07;100238.69;;;50.01;21.95
59407;BME280;45208;32.616;-115.472;2022-09-09T22:02:38;100255.22;;;48.93;23.46
59407;BME280;45208;32.616;-115.472;2022-09-09T22:05:04;100248.53;;;48.60;23.41
59407;BME280;45208;32.616;-115.472;2022-09-09T22:07:31;100255.94;;;48.99;23.59
59407;BME280;45208;32.616;-115.472;2022-09-09T22:09:57;100261.28;;;49.33;22.42
59407;BME280;45208;32.616;-115.472;2022-09-09T22:12:24;100255.41;;;49.57;21.70
59407;BME280;45208;32.616;-115.472;2022-09-09T22:14:50;100258.69;;;49.10;22.12
59407;BME280;45208;32.616;-115.472;2022-09-09T22:17:18;100260.00;;;49.09;23.60
59407;BME280;45208;32.616;-115.472;2022-09-09T22:19:45;100267.56;;;49.12;23.82
59407;BME280;45208;32.616;-115.472;2022-09-09T22:22:11;100261.50;;;47.52;25.51
59407;BME280;45208;32.616;-115.472;2022-09-09T22:24:38;100265.91;;;48.98;23.96
59407;BME280;45208;32.616;-115.472;2022-09-09T22:27:04;100251.06;;;49.82;22.47
59407;BME280;45208;32.616;-115.472;2022-09-09T22:29:30;100271.88;;;49.62;23.13
59407;BME280;45208;32.616;-115.472;2022-09-09T22:31:57;100259.63;;;49.37;23.29
59407;BME280;45208;32.616;-115.472;2022-09-09T22:34:24;100254.22;;;49.98;22.37
59407;BME280;45208;32.616;-115.472;2022-09-09T22:36:53;100270.59;;;49.01;23.44
59407;BME280;45208;32.616;-115.472;2022-09-09T22:39:19;100261.47;;;50.04;21.96
59407;BME280;45208;32.616;-115.472;2022-09-09T22:41:45;100258.91;;;49.50;23.27
59407;BME280;45208;32.616;-115.472;2022-09-09T22:44:12;100273.06;;;48.91;23.19
59407;BME280;45208;32.616;-115.472;2022-09-09T22:46:39;100268.81;;;49.54;25.16
59407;BME280;45208;32.616;-115.472;2022-09-09T22:49:05;100268.59;;;49.15;23.77
59407;BME280;45208;32.616;-115.472;2022-09-09T22:51:31;100262.97;;;48.79;24.53
59407;BME280;45208;32.616;-115.472;2022-09-09T22:54:00;100258.25;;;47.26;26.09
59407;BME280;45208;32.616;-115.472;2022-09-09T22:56:27;100260.16;;;47.95;25.20
59407;BME280;45208;32.616;-115.472;2022-09-09T22:58:53;100256.00;;;48.20;26.42
59407;BME280;45208;32.616;-115.472;2022-09-09T23:01:20;100249.91;;;47.17;25.75
59407;BME280;45208;32.616;-115.472;2022-09-09T23:03:47;100252.16;;;48.66;25.75
59407;BME280;45208;32.616;-115.472;2022-09-09T23:06:15;100249.81;;;48.84;24.10
59407;BME280;45208;32.616;-115.472;2022-09-09T23:08:53;100254.84;;;49.58;23.62
59407;BME280;45208;32.616;-115.472;2022-09-09T23:11:27;100247.16;;;50.25;24.08
59407;BME280;45208;32.616;-115.472;2022-09-09T23:13:56;100244.53;;;50.80;23.40
59407;BME280;45208;32.616;-115.472;2022-09-09T23:16:26;100244.31;;;50.91;23.25
59407;BME280;45208;32.616;-115.472;2022-09-09T23:18:53;100251.03;;;50.01;23.87
59407;BME280;45208;32.616;-115.472;2022-09-09T23:21:22;100247.78;;;49.41;24.06
59407;BME280;45208;32.616;-115.472;2022-09-09T23:23:53;100245.72;;;49.86;22.03
59407;BME280;45208;32.616;-115.472;2022-09-09T23:26:19;100254.25;;;49.47;23.27
59407;BME280;45208;32.616;-115.472;2022-09-09T23:28:46;100255.94;;;49.37;22.94
59407;BME280;45208;32.616;-115.472;2022-09-09T23:31:14;100265.16;;;43.73;31.16
59407;BME280;45208;32.616;-115.472;2022-09-09T23:33:41;100272.75;;;42.54;34.13
59407;BME280;45208;32.616;-115.472;2022-09-09T23:36:12;100258.72;;;48.86;24.46
59407;BME280;45208;32.616;-115.472;2022-09-09T23:38:39;100262.94;;;48.85;23.93
59407;BME280;45208;32.616;-115.472;2022-09-09T23:41:06;100257.56;;;50.34;22.92
59407;BME280;45208;32.616;-115.472;2022-09-09T23:43:33;100260.56;;;49.45;22.34
59407;BME280;45208;32.616;-115.472;2022-09-09T23:46:04;100245.84;;;50.13;22.24
59407;BME280;45208;32.616;-115.472;2022-09-09T23:48:31;100237.09;;;50.71;21.57
59407;BME280;45208;32.616;-115.472;2022-09-09T23:50:57;100247.44;;;50.40;22.24
59407;BME280;45208;32.616;-115.472;2022-09-09T23:53:24;100248.44;;;49.66;22.77
59407;BME280;45208;32.616;-115.472;2022-09-09T23:55:51;100251.00;;;50.46;22.50
59407;BME280;45208;32.616;-115.472;2022-09-09T23:58:18;100242.75;;;50.77;21.18
